createdAt,value
2019-03-29T00:01:53.349Z,101292.57
2019-03-29T00:04:22.108Z,101291.19
2019-03-29T00:06:50.932Z,101287.88
2019-03-29T00:09:19.696Z,101293.47
2019-03-29T00:11:48.450Z,101291.02
2019-03-29T00:14:17.252Z,101291.82
2019-03-29T00:16:48.589Z,101289.34
2019-03-29T00:19:17.376Z,101283.52
2019-03-29T00:21:46.169Z,101278.66
2019-03-29T00:24:15.100Z,101280.82
2019-03-29T00:26:44.071Z,101278.46
2019-03-29T00:29:12.872Z,101275.43
2019-03-29T00:31:41.629Z,101272.47
2019-03-29T00:34:10.389Z,101274.02
2019-03-29T00:36:39.269Z,101276.86
2019-03-29T00:39:08.256Z,101288.63
2019-03-29T00:41:37.014Z,101284.92
2019-03-29T00:44:05.816Z,101282.02
2019-03-29T00:46:35.490Z,101281.75
2019-03-29T00:49:04.269Z,101280.19
2019-03-29T00:51:33.070Z,101288.83
2019-03-29T00:54:02.056Z,101292.00
2019-03-29T00:56:31.195Z,101294.09
2019-03-29T00:58:59.988Z,101288.54
2019-03-29T01:01:30.848Z,101291.63
2019-03-29T01:03:59.592Z,101285.84
2019-03-29T01:06:28.418Z,101281.50
2019-03-29T01:08:57.169Z,101288.45
2019-03-29T01:11:25.949Z,101287.41
2019-03-29T01:13:54.754Z,101284.00
2019-03-29T01:16:23.510Z,101281.22
2019-03-29T01:18:52.249Z,101282.39
2019-03-29T01:21:21.090Z,101283.95
2019-03-29T01:23:50.016Z,101279.62
2019-03-29T01:26:19.089Z,101276.53
2019-03-29T01:28:47.896Z,101278.03
2019-03-29T01:31:16.648Z,101286.89
2019-03-29T01:33:45.415Z,101285.68
2019-03-29T01:36:14.229Z,101286.55
2019-03-29T01:38:42.970Z,101280.14
2019-03-29T01:41:11.790Z,101284.05
2019-03-29T01:43:40.609Z,101277.87
2019-03-29T01:46:09.369Z,101270.05
2019-03-29T01:48:38.110Z,101269.00
2019-03-29T01:51:06.936Z,101266.58
2019-03-29T01:53:35.689Z,101267.44
2019-03-29T01:56:04.434Z,101263.51
2019-03-29T01:58:33.230Z,101267.95
2019-03-29T02:01:02.280Z,101269.50
2019-03-29T02:03:31.929Z,101273.68
2019-03-29T02:06:00.751Z,101275.64
2019-03-29T02:08:35.569Z,101267.53
2019-03-29T02:10:59.970Z,101276.38
2019-03-29T02:13:28.809Z,101276.05
2019-03-29T02:15:57.549Z,101277.05
2019-03-29T02:18:26.330Z,101273.27
2019-03-29T02:20:55.151Z,101275.66
2019-03-29T02:23:23.912Z,101269.80
2019-03-29T02:25:52.791Z,101274.87
2019-03-29T02:28:21.591Z,101272.84
2019-03-29T02:30:50.338Z,101275.07
2019-03-29T02:33:20.495Z,101278.85
2019-03-29T02:35:49.602Z,101273.85
2019-03-29T02:38:18.372Z,101282.99
2019-03-29T02:40:47.149Z,101288.89
2019-03-29T02:43:15.972Z,101296.88
2019-03-29T02:45:44.729Z,101303.03
2019-03-29T02:48:13.650Z,101299.33
2019-03-29T02:50:42.472Z,101299.77
2019-03-29T02:53:11.251Z,101309.31
2019-03-29T02:55:40.031Z,101303.68
2019-03-29T02:58:08.871Z,101302.13
2019-03-29T03:00:37.610Z,101300.02
2019-03-29T03:03:06.391Z,101303.31
2019-03-29T03:05:35.241Z,101304.42
2019-03-29T03:08:03.975Z,101311.44
2019-03-29T03:10:32.751Z,101305.58
2019-03-29T03:13:01.590Z,101306.87
2019-03-29T03:15:30.661Z,101307.86
2019-03-29T03:17:59.441Z,101310.45
2019-03-29T03:20:28.316Z,101308.89
2019-03-29T03:22:57.051Z,101300.63
2019-03-29T03:25:25.818Z,101304.82
2019-03-29T03:27:54.610Z,101307.31
2019-03-29T03:30:23.371Z,101305.41
2019-03-29T03:32:52.145Z,101311.92
2019-03-29T03:35:20.953Z,101307.19
2019-03-29T03:37:49.728Z,101306.43
2019-03-29T03:40:18.688Z,101306.78
2019-03-29T03:42:47.495Z,101300.38
2019-03-29T03:45:16.231Z,101309.47
2019-03-29T03:47:44.969Z,101318.19
2019-03-29T03:50:25.556Z,101317.81
2019-03-29T03:52:54.310Z,101311.60
2019-03-29T03:55:23.071Z,101316.61
2019-03-29T03:57:52.606Z,101314.52
2019-03-29T04:00:24.299Z,101315.59
2019-03-29T04:02:53.048Z,101315.41
2019-03-29T04:05:21.848Z,101315.23
2019-03-29T04:07:50.605Z,101320.42
2019-03-29T04:10:19.369Z,101320.52
2019-03-29T04:12:48.167Z,101319.92
2019-03-29T04:15:16.930Z,101315.00
2019-03-29T04:17:45.670Z,101314.89
2019-03-29T04:20:14.566Z,101315.53
2019-03-29T04:22:43.359Z,101324.58
2019-03-29T04:25:12.106Z,101317.82
2019-03-29T04:27:40.907Z,101316.70
2019-03-29T04:30:09.868Z,101316.84
2019-03-29T04:32:38.644Z,101323.25
2019-03-29T04:35:07.530Z,101316.38
2019-03-29T04:37:36.324Z,101317.77
2019-03-29T04:40:08.352Z,101317.47
2019-03-29T04:42:36.690Z,101319.47
2019-03-29T04:45:06.470Z,101318.12
2019-03-29T04:47:35.227Z,101312.74
2019-03-29T04:50:05.627Z,101307.03
2019-03-29T04:52:35.148Z,101310.70
2019-03-29T04:55:04.907Z,101308.11
2019-03-29T04:57:33.728Z,101317.61
2019-03-29T05:00:02.467Z,101318.88
2019-03-29T05:02:31.234Z,101311.63
2019-03-29T05:05:00.029Z,101314.97
2019-03-29T05:07:28.815Z,101311.83
2019-03-29T05:09:57.588Z,101314.70
2019-03-29T05:12:26.406Z,101316.62
2019-03-29T05:14:55.128Z,101317.23
2019-03-29T05:17:23.887Z,101314.00
2019-03-29T05:19:52.706Z,101313.50
2019-03-29T05:22:21.446Z,101316.70
2019-03-29T05:24:50.210Z,101318.27
2019-03-29T05:27:19.007Z,101320.80
2019-03-29T05:29:47.787Z,101316.88
2019-03-29T05:32:16.548Z,101318.34
2019-03-29T05:34:45.447Z,101318.25
2019-03-29T05:37:14.207Z,101315.63
2019-03-29T05:39:42.947Z,101312.99
2019-03-29T05:42:11.754Z,101316.16
2019-03-29T05:44:40.935Z,101309.35
2019-03-29T05:47:09.810Z,101307.97
2019-03-29T05:49:38.587Z,101304.82
2019-03-29T05:52:07.349Z,101309.69
2019-03-29T05:54:36.087Z,101299.44
2019-03-29T05:57:04.886Z,101299.34
2019-03-29T05:59:33.629Z,101309.73
2019-03-29T06:02:02.390Z,101305.25
2019-03-29T06:04:31.147Z,101304.42
2019-03-29T06:06:59.888Z,101301.76
2019-03-29T06:09:28.710Z,101297.64
2019-03-29T06:11:57.448Z,101303.64
2019-03-29T06:14:26.247Z,101305.56
2019-03-29T06:16:55.027Z,101305.31
2019-03-29T06:19:23.768Z,101300.91
2019-03-29T06:21:52.569Z,101305.84
2019-03-29T06:24:21.326Z,101299.98
2019-03-29T06:26:50.075Z,101300.97
2019-03-29T06:29:18.847Z,101302.34
2019-03-29T06:31:47.587Z,101300.20
2019-03-29T06:34:16.387Z,101305.48
2019-03-29T06:36:45.746Z,101299.50
2019-03-29T06:39:14.947Z,101298.22
2019-03-29T06:41:43.726Z,101306.62
2019-03-29T06:44:12.467Z,101304.63
2019-03-29T06:46:41.289Z,101303.41
2019-03-29T06:49:10.126Z,101296.08
2019-03-29T06:51:38.866Z,101297.46
2019-03-29T06:54:07.671Z,101305.85
2019-03-29T06:56:36.386Z,101305.44
2019-03-29T06:59:05.186Z,101318.23
2019-03-29T07:01:33.950Z,101317.39
2019-03-29T07:04:02.687Z,101314.77
2019-03-29T07:06:31.486Z,101315.20
2019-03-29T07:09:00.271Z,101313.08
2019-03-29T07:11:29.058Z,101311.33
2019-03-29T07:13:58.257Z,101318.34
2019-03-29T07:16:27.147Z,101307.38
2019-03-29T07:18:55.930Z,101312.19
2019-03-29T07:21:24.690Z,101305.63
2019-03-29T07:23:53.486Z,101312.16
2019-03-29T07:26:22.266Z,101326.59
2019-03-29T07:28:51.048Z,101328.78
2019-03-29T07:31:19.809Z,101327.02
2019-03-29T07:33:48.566Z,101322.95
2019-03-29T07:36:17.366Z,101318.53
2019-03-29T07:38:46.109Z,101315.85
2019-03-29T07:41:14.887Z,101317.56
2019-03-29T07:43:43.646Z,101321.09
2019-03-29T07:46:12.406Z,101317.55
2019-03-29T07:48:41.207Z,101316.16
2019-03-29T07:51:09.967Z,101319.22
2019-03-29T07:53:38.726Z,101326.11
2019-03-29T07:56:07.554Z,101315.23
2019-03-29T07:58:36.308Z,101320.28
2019-03-29T08:01:05.118Z,101314.13
2019-03-29T08:03:33.881Z,101320.11
2019-03-29T08:06:02.670Z,101312.41
2019-03-29T08:08:33.357Z,101312.14
2019-03-29T08:11:01.906Z,101316.14
2019-03-29T08:13:30.667Z,101317.43
2019-03-29T08:15:59.426Z,101315.86
2019-03-29T08:18:28.247Z,101306.78
2019-03-29T08:20:57.007Z,101317.42
2019-03-29T08:23:28.614Z,101313.18
2019-03-29T08:25:56.348Z,101319.44
2019-03-29T08:28:25.126Z,101317.50
2019-03-29T08:30:53.886Z,101316.39
2019-03-29T08:33:22.742Z,101321.53
2019-03-29T08:35:51.506Z,101318.27
2019-03-29T08:38:20.266Z,101310.44
2019-03-29T08:40:49.087Z,101309.77
2019-03-29T08:43:17.846Z,101305.15
2019-03-29T08:45:46.609Z,101305.59
2019-03-29T08:48:15.407Z,101307.60
2019-03-29T08:50:44.168Z,101306.57
2019-03-29T08:53:12.906Z,101307.92
2019-03-29T08:55:46.142Z,101306.22
2019-03-29T08:58:12.427Z,101305.15
2019-03-29T09:00:41.207Z,101309.29
2019-03-29T09:03:10.048Z,101304.61
2019-03-29T09:05:39.374Z,101300.58
2019-03-29T09:08:08.366Z,101300.23
2019-03-29T09:10:37.187Z,101295.22
2019-03-29T09:13:05.966Z,101295.25
2019-03-29T09:15:34.746Z,101281.52
2019-03-29T09:18:03.691Z,101285.41
2019-03-29T09:20:34.546Z,101291.00
2019-03-29T09:23:03.108Z,101288.00
2019-03-29T09:25:32.827Z,101281.95
2019-03-29T09:28:01.651Z,101278.91
2019-03-29T09:30:30.487Z,101280.59
2019-03-29T09:32:59.306Z,101269.08
2019-03-29T09:35:28.066Z,101269.27
2019-03-29T09:37:56.922Z,101267.67
2019-03-29T09:40:25.809Z,101270.27
2019-03-29T09:43:06.723Z,101264.79
2019-03-29T09:45:25.026Z,101262.05
2019-03-29T09:47:55.893Z,101262.45
2019-03-29T09:50:24.328Z,101263.98
2019-03-29T09:52:53.106Z,101258.62
2019-03-29T09:55:21.930Z,101262.02
2019-03-29T09:57:50.730Z,101267.09
2019-03-29T10:00:23.300Z,101271.09
2019-03-29T10:02:50.760Z,101273.47
2019-03-29T10:05:20.227Z,101274.20
2019-03-29T10:07:49.387Z,101270.44
2019-03-29T10:10:18.231Z,101262.25
2019-03-29T10:12:46.990Z,101269.05
2019-03-29T10:15:15.752Z,101261.08
2019-03-29T10:17:44.547Z,101270.11
2019-03-29T10:20:13.409Z,101261.14
2019-03-29T10:22:42.191Z,101258.23
2019-03-29T10:25:19.098Z,101259.49
2019-03-29T10:27:41.488Z,101256.02
2019-03-29T10:30:10.769Z,101249.23
2019-03-29T10:32:39.588Z,101263.79
2019-03-29T10:35:09.047Z,101265.89
2019-03-29T10:37:37.808Z,101265.94
2019-03-29T10:40:07.688Z,101262.65
2019-03-29T10:42:39.763Z,101260.87
2019-03-29T10:45:07.031Z,101256.67
2019-03-29T10:47:43.865Z,101253.42
2019-03-29T10:50:08.047Z,101250.23
2019-03-29T10:52:36.826Z,101246.75
2019-03-29T10:55:06.607Z,101244.31
2019-03-29T10:57:35.389Z,101243.34
2019-03-29T11:00:11.908Z,101245.16
2019-03-29T11:02:40.686Z,101234.95
2019-03-29T11:05:09.647Z,101242.48
2019-03-29T11:07:38.476Z,101230.73
2019-03-29T11:10:07.450Z,101239.59
2019-03-29T11:12:36.246Z,101240.06
2019-03-29T11:15:06.979Z,101236.05
2019-03-29T11:17:35.946Z,101236.14
2019-03-29T11:20:05.066Z,101241.09
2019-03-29T11:22:33.832Z,101236.80
2019-03-29T11:25:02.587Z,101241.09
2019-03-29T11:27:31.411Z,101236.17
2019-03-29T11:30:00.358Z,101237.36
2019-03-29T11:32:29.180Z,101241.84
2019-03-29T11:34:57.949Z,101243.62
2019-03-29T11:37:26.728Z,101234.56
2019-03-29T11:39:55.514Z,101233.00
2019-03-29T11:42:24.267Z,101235.60
2019-03-29T11:44:53.106Z,101231.56
2019-03-29T11:47:21.867Z,101220.06
2019-03-29T11:49:52.920Z,101225.48
2019-03-29T11:52:21.128Z,101213.30
2019-03-29T11:54:49.907Z,101214.13
2019-03-29T11:57:18.706Z,101207.91
2019-03-29T11:59:47.469Z,101208.94
2019-03-29T12:02:30.219Z,101211.66
2019-03-29T12:04:46.722Z,101198.90
2019-03-29T12:07:17.509Z,101204.94
2019-03-29T12:09:46.347Z,101205.19
2019-03-29T12:12:15.226Z,101201.13
2019-03-29T12:14:44.067Z,101194.33
2019-03-29T12:17:12.858Z,101195.72
2019-03-29T12:19:41.606Z,101186.87
2019-03-29T12:22:10.426Z,101179.41
2019-03-29T12:24:40.166Z,101182.36
2019-03-29T12:27:08.987Z,101165.66
2019-03-29T12:29:37.754Z,101173.05
2019-03-29T12:32:06.567Z,101169.86
2019-03-29T12:34:35.388Z,101169.05
2019-03-29T12:37:04.227Z,101166.31
2019-03-29T12:39:33.026Z,101160.13
2019-03-29T12:42:01.787Z,101169.22
2019-03-29T12:44:30.587Z,101157.61
2019-03-29T12:46:59.367Z,101152.37
2019-03-29T12:49:28.107Z,101141.83
2019-03-29T12:51:56.947Z,101142.27
2019-03-29T12:54:25.733Z,101137.98
2019-03-29T12:56:54.486Z,101134.25
2019-03-29T12:59:23.286Z,101143.24
2019-03-29T13:01:52.047Z,101131.38
2019-03-29T13:04:20.848Z,101125.48
2019-03-29T13:06:49.595Z,101126.89
2019-03-29T13:09:18.474Z,101115.95
2019-03-29T13:11:47.266Z,101120.47
2019-03-29T13:14:16.086Z,101120.13
2019-03-29T13:16:44.986Z,101117.53
2019-03-29T13:19:13.749Z,101114.30
2019-03-29T13:21:42.497Z,101116.41
2019-03-29T13:24:11.468Z,101117.19
2019-03-29T13:26:40.248Z,101100.77
2019-03-29T13:29:09.067Z,101106.32
2019-03-29T13:31:37.829Z,101096.46
2019-03-29T13:34:06.607Z,101098.02
2019-03-29T13:36:35.408Z,101092.66
2019-03-29T13:39:05.628Z,101099.85
2019-03-29T13:41:34.467Z,101096.34
2019-03-29T13:44:03.291Z,101095.83
2019-03-29T13:46:32.048Z,101094.90
2019-03-29T13:49:00.846Z,101094.55
2019-03-29T13:51:29.631Z,101093.34
2019-03-29T13:53:58.429Z,101092.09
2019-03-29T13:56:27.187Z,101087.79
2019-03-29T13:58:55.968Z,101088.86
2019-03-29T14:01:24.768Z,101078.53
2019-03-29T14:03:53.571Z,101090.94
2019-03-29T14:06:22.368Z,101085.44
2019-03-29T14:08:51.149Z,101077.61
2019-03-29T14:11:19.928Z,101074.05
2019-03-29T14:13:48.732Z,101071.91
2019-03-29T14:16:17.506Z,101064.19
2019-03-29T14:18:46.308Z,101066.97
2019-03-29T14:21:15.088Z,101067.66
2019-03-29T14:23:44.161Z,101060.64
2019-03-29T14:26:16.085Z,101056.34
2019-03-29T14:28:43.360Z,101054.36
2019-03-29T14:31:12.167Z,101041.58
2019-03-29T14:33:40.892Z,101040.00
2019-03-29T14:36:09.708Z,101033.41
2019-03-29T14:38:38.482Z,101027.88
2019-03-29T14:41:07.246Z,101026.48
2019-03-29T14:43:36.048Z,101019.00
2019-03-29T14:46:04.806Z,101012.79
2019-03-29T14:48:33.646Z,101009.97
2019-03-29T14:51:02.408Z,101009.33
2019-03-29T14:53:31.247Z,101006.23
2019-03-29T14:56:00.026Z,101006.39
2019-03-29T14:58:28.765Z,101001.73
2019-03-29T15:00:57.580Z,101004.91
2019-03-29T15:03:26.326Z,101005.53
2019-03-29T15:05:55.306Z,101000.95
2019-03-29T15:08:24.086Z,101000.59
2019-03-29T15:10:52.866Z,100993.11
2019-03-29T15:13:21.667Z,100989.86
2019-03-29T15:15:53.382Z,100978.55
2019-03-29T15:18:20.946Z,100987.66
2019-03-29T15:20:53.742Z,100982.22
2019-03-29T15:23:20.229Z,100987.47
2019-03-29T15:25:49.066Z,100988.91
2019-03-29T15:28:17.809Z,100988.44
2019-03-29T15:30:46.587Z,100988.48
2019-03-29T15:33:15.406Z,100986.00
2019-03-29T15:35:44.190Z,100979.98
2019-03-29T15:38:12.971Z,100978.67
2019-03-29T15:40:41.786Z,100988.28
2019-03-29T15:43:10.577Z,100990.16
2019-03-29T15:45:39.329Z,100989.39
2019-03-29T15:48:08.167Z,100985.67
2019-03-29T15:50:36.946Z,100980.31
2019-03-29T15:53:05.727Z,100980.81
2019-03-29T15:55:34.646Z,100977.90
2019-03-29T15:58:03.427Z,100978.27
2019-03-29T16:00:32.226Z,100979.10
2019-03-29T16:03:01.067Z,100973.72
2019-03-29T16:05:29.807Z,100971.73
2019-03-29T16:07:58.586Z,100967.62
2019-03-29T16:10:27.483Z,100964.73
2019-03-29T16:12:56.455Z,100968.03
2019-03-29T16:15:34.183Z,100957.84
2019-03-29T16:17:58.526Z,100955.28
2019-03-29T16:20:27.329Z,100954.41
2019-03-29T16:22:56.127Z,100952.22
2019-03-29T16:25:24.970Z,100945.86
2019-03-29T16:27:53.782Z,100949.95
2019-03-29T16:30:22.823Z,100943.69
2019-03-29T16:32:51.766Z,100940.21
2019-03-29T16:35:20.534Z,100937.47
2019-03-29T16:37:57.072Z,100944.48
2019-03-29T16:40:19.889Z,100937.73
2019-03-29T16:42:48.647Z,100936.32
2019-03-29T16:45:17.487Z,100929.14
2019-03-29T16:47:46.214Z,100922.44
2019-03-29T16:50:15.247Z,100926.39
2019-03-29T16:52:44.128Z,100924.40
2019-03-29T16:55:14.228Z,100918.88
2019-03-29T16:57:43.424Z,100921.22
2019-03-29T17:00:13.034Z,100918.47
2019-03-29T17:02:41.949Z,100921.08
2019-03-29T17:05:11.232Z,100923.50
2019-03-29T17:07:40.279Z,100921.05
2019-03-29T17:10:09.568Z,100925.22
2019-03-29T17:12:38.486Z,100927.62
2019-03-29T17:15:07.847Z,100925.91
2019-03-29T17:17:36.750Z,100924.41
2019-03-29T17:20:09.966Z,100925.09
2019-03-29T17:22:38.889Z,100925.72
2019-03-29T17:25:08.941Z,100926.19
2019-03-29T17:27:37.889Z,100927.97
2019-03-29T17:30:09.927Z,100926.84
2019-03-29T17:32:38.688Z,100925.86
2019-03-29T17:35:09.007Z,100924.46
2019-03-29T17:37:37.886Z,100925.41
2019-03-29T17:40:08.537Z,100922.48
2019-03-29T17:42:37.608Z,100920.03
2019-03-29T17:45:08.234Z,100923.28
2019-03-29T17:47:37.168Z,100924.05
2019-03-29T17:50:06.846Z,100923.83
2019-03-29T17:52:35.657Z,100928.12
2019-03-29T17:55:06.646Z,100931.09
2019-03-29T17:57:35.448Z,100935.63
2019-03-29T18:00:07.648Z,100932.42
2019-03-29T18:02:36.608Z,100928.80
2019-03-29T18:05:10.013Z,100926.82
2019-03-29T18:07:38.887Z,100930.91
2019-03-29T18:10:09.371Z,100934.58
2019-03-29T18:12:38.289Z,100930.81
2019-03-29T18:15:09.207Z,100934.34
2019-03-29T18:17:38.086Z,100933.62
2019-03-29T18:20:09.335Z,100932.27
2019-03-29T18:22:38.367Z,100938.53
2019-03-29T18:25:07.766Z,100929.67
2019-03-29T18:27:36.637Z,100929.19
2019-03-29T18:30:10.656Z,100929.36
2019-03-29T18:32:39.647Z,100927.44
2019-03-29T18:35:09.159Z,100932.42
2019-03-29T18:37:38.246Z,100932.13
2019-03-29T18:40:08.818Z,100931.45
2019-03-29T18:42:37.727Z,100940.70
2019-03-29T18:45:08.367Z,100931.73
2019-03-29T18:47:37.360Z,100938.16
2019-03-29T18:50:07.366Z,100928.80
2019-03-29T18:52:38.608Z,100921.81
2019-03-29T18:55:07.528Z,100924.92
2019-03-29T18:57:36.328Z,100925.37
2019-03-29T19:00:07.286Z,100928.94
2019-03-29T19:02:36.208Z,100924.49
2019-03-29T19:05:05.729Z,100921.87
2019-03-29T19:07:34.728Z,100924.53
2019-03-29T19:10:03.728Z,100926.31
2019-03-29T19:12:32.451Z,100922.88
2019-03-29T19:15:01.561Z,100921.13
2019-03-29T19:17:30.446Z,100923.75
2019-03-29T19:19:59.357Z,100918.98
2019-03-29T19:22:32.448Z,100914.16
2019-03-29T19:25:01.349Z,100916.33
2019-03-29T19:27:30.144Z,100916.77
2019-03-29T19:29:59.003Z,100915.91
2019-03-29T19:32:27.824Z,100911.97
2019-03-29T19:34:56.583Z,100908.92
2019-03-29T19:37:25.444Z,100915.05
2019-03-29T19:39:54.283Z,100905.42
2019-03-29T19:42:23.144Z,100907.17
2019-03-29T19:44:52.004Z,100913.74
2019-03-29T19:47:20.824Z,100908.03
2019-03-29T19:49:49.725Z,100907.14
2019-03-29T19:52:18.566Z,100908.46
2019-03-29T19:54:47.398Z,100908.00
2019-03-29T19:57:16.268Z,100909.31
2019-03-29T19:59:48.010Z,100909.32
2019-03-29T20:02:15.684Z,100905.81
2019-03-29T20:04:44.646Z,100902.77
2019-03-29T20:07:13.744Z,100898.76
2019-03-29T20:09:42.645Z,100898.23
2019-03-29T20:12:11.566Z,100892.92
2019-03-29T20:14:40.490Z,100895.97
2019-03-29T20:17:09.524Z,100895.50
2019-03-29T20:19:38.344Z,100893.75
2019-03-29T20:22:07.163Z,100894.25
2019-03-29T20:24:35.984Z,100895.66
2019-03-29T20:27:04.845Z,100889.59
2019-03-29T20:29:33.703Z,100897.39
2019-03-29T20:32:02.567Z,100895.61
2019-03-29T20:34:31.343Z,100899.91
2019-03-29T20:37:00.203Z,100895.48
2019-03-29T20:39:29.064Z,100901.95
2019-03-29T20:41:57.846Z,100897.06
2019-03-29T20:44:26.684Z,100898.37
2019-03-29T20:46:55.563Z,100894.45
2019-03-29T20:49:24.324Z,100890.95
2019-03-29T20:51:53.143Z,100888.34
2019-03-29T20:54:21.923Z,100883.52
2019-03-29T20:56:50.666Z,100883.98
2019-03-29T20:59:19.464Z,100883.91
2019-03-29T21:01:48.243Z,100883.84
2019-03-29T21:04:17.023Z,100882.45
2019-03-29T21:06:45.843Z,100880.30
2019-03-29T21:09:14.588Z,100879.69
2019-03-29T21:11:43.344Z,100878.34
2019-03-29T21:14:12.150Z,100868.33
2019-03-29T21:16:40.930Z,100873.45
2019-03-29T21:19:09.683Z,100872.33
2019-03-29T21:21:38.524Z,100870.58
2019-03-29T21:24:07.365Z,100865.16
2019-03-29T21:26:36.143Z,100866.90
2019-03-29T21:29:04.964Z,100860.33
2019-03-29T21:31:33.704Z,100858.23
2019-03-29T21:34:02.471Z,100862.16
2019-03-29T21:36:31.273Z,100861.41
2019-03-29T21:39:00.083Z,100862.86
2019-03-29T21:41:28.844Z,100855.48
2019-03-29T21:43:57.684Z,100857.13
2019-03-29T21:46:26.443Z,100861.36
2019-03-29T21:48:55.173Z,100856.58
2019-03-29T21:51:24.012Z,100853.05
2019-03-29T21:53:52.766Z,100852.62
2019-03-29T21:56:21.524Z,100846.16
2019-03-29T21:58:50.364Z,100847.51
2019-03-29T22:01:19.145Z,100843.66
2019-03-29T22:03:47.903Z,100845.80
2019-03-29T22:06:16.724Z,100840.21
2019-03-29T22:08:45.483Z,100837.20
2019-03-29T22:11:14.243Z,100823.77
2019-03-29T22:13:43.063Z,100832.00
2019-03-29T22:16:11.823Z,100837.85
2019-03-29T22:18:40.564Z,100844.70
2019-03-29T22:21:09.383Z,100849.70
2019-03-29T22:23:38.143Z,100841.31
2019-03-29T22:26:06.903Z,100836.53
2019-03-29T22:28:35.743Z,100831.27
2019-03-29T22:31:04.523Z,100838.48
2019-03-29T22:33:33.303Z,100834.26
2019-03-29T22:36:02.126Z,100830.52
2019-03-29T22:38:30.903Z,100826.73
2019-03-29T22:40:59.663Z,100828.82
2019-03-29T22:43:28.503Z,100817.90
2019-03-29T22:45:57.243Z,100820.52
2019-03-29T22:48:26.006Z,100825.73
2019-03-29T22:50:54.803Z,100818.69
2019-03-29T22:53:23.566Z,100815.69
2019-03-29T22:55:52.323Z,100818.38
2019-03-29T22:58:21.143Z,100813.30
2019-03-29T23:00:55.523Z,100808.20
2019-03-29T23:03:24.285Z,100810.77
2019-03-29T23:05:53.123Z,100804.89
2019-03-29T23:08:21.883Z,100805.38
2019-03-29T23:10:50.664Z,100798.32
2019-03-29T23:13:19.465Z,100804.89
2019-03-29T23:15:48.227Z,100807.78
2019-03-29T23:18:17.327Z,100797.25
2019-03-29T23:20:46.147Z,100795.08
2019-03-29T23:23:15.205Z,100799.39
2019-03-29T23:25:44.199Z,100794.17
2019-03-29T23:28:13.025Z,100801.60
2019-03-29T23:30:41.779Z,100799.09
2019-03-29T23:33:10.580Z,100796.91
2019-03-29T23:35:39.390Z,100805.13
2019-03-29T23:38:08.151Z,100793.06
2019-03-29T23:40:36.885Z,100796.83
2019-03-29T23:43:05.686Z,100798.99
2019-03-29T23:45:34.445Z,100799.60
2019-03-29T23:48:03.185Z,100793.73
2019-03-29T23:50:32.005Z,100793.73
2019-03-29T23:53:00.765Z,100794.07
2019-03-29T23:55:29.505Z,100792.81
2019-03-29T23:57:58.542Z,100788.41
